<?xml version="1.0" encoding="UTF-8" standalone="no" ?>
<gpx xmlns="http://www.topografix.com/GPX/1/1" xmlns:xsi="http://www.w3.org/2001/XMLSchema-instance" xsi:schemaLocation="http://www.topografix.com/GPX/1/1 http://www.topografix.com/GPX/1/1/gpx.xsd" version="1.1" creator="VisuGPX - https://www.visugpx.com">
  <metadata>
    <name>39 parcours camps Romain BAR SUR AUBE</name>
    <desc><![CDATA[parcours GRAVEL avec des sentiers variés  de belles côtes et de superbes paysage]]></desc>
  </metadata>
  <trk>
    <name><![CDATA[39. Parcours du camp romain-17237818]]></name>
    <extensions>
      <line xmlns="http://www.topografix.com/GPX/gpx_style/0/2">
        <color>0000FF</color>
        <width>4</width>
      </line>
    </extensions>
    <trkseg>
      <trkpt lat="48.21931" lon="4.69874">
        <ele>311</ele>
        <time>2024-10-11T12:26:14Z</time>
      </trkpt>
      <trkpt lat="48.21838" lon="4.69907">
        <ele>314</ele>
        <time>2024-10-11T12:26:31Z</time>
      </trkpt>
      <trkpt lat="48.21818" lon="4.69796">
        <ele>320</ele>
        <time>2024-10-11T12:26:45Z</time>
      </trkpt>
      <trkpt lat="48.21829" lon="4.69686">
        <ele>317</ele>
        <time>2024-10-11T12:26:58Z</time>
      </trkpt>
      <trkpt lat="48.21825" lon="4.69678">
        <ele>317</ele>
        <time>2024-10-11T12:26:59Z</time>
      </trkpt>
      <trkpt lat="48.21674" lon="4.69662">
        <ele>321</ele>
        <time>2024-10-11T12:27:26Z</time>
      </trkpt>
      <trkpt lat="48.21599" lon="4.69653">
        <ele>319</ele>
        <time>2024-10-11T12:27:39Z</time>
      </trkpt>
      <trkpt lat="48.21528" lon="4.69683">
        <ele>319</ele>
        <time>2024-10-11T12:27:52Z</time>
      </trkpt>
      <trkpt lat="48.21393" lon="4.69823">
        <ele>324</ele>
        <time>2024-10-11T12:28:22Z</time>
      </trkpt>
      <trkpt lat="48.2136" lon="4.69835">
        <ele>324</ele>
        <time>2024-10-11T12:28:28Z</time>
      </trkpt>
      <trkpt lat="48.21302" lon="4.69845">
        <ele>325</ele>
        <time>2024-10-11T12:28:38Z</time>
      </trkpt>
      <trkpt lat="48.21271" lon="4.69836">
        <ele>326</ele>
        <time>2024-10-11T12:28:44Z</time>
      </trkpt>
      <trkpt lat="48.21165" lon="4.69871">
        <ele>333</ele>
        <time>2024-10-11T12:29:03Z</time>
      </trkpt>
      <trkpt lat="48.20988" lon="4.69851">
        <ele>338</ele>
        <time>2024-10-11T12:29:35Z</time>
      </trkpt>
      <trkpt lat="48.20846" lon="4.69883">
        <ele>341</ele>
        <time>2024-10-11T12:30:00Z</time>
      </trkpt>
      <trkpt lat="48.2068" lon="4.6996">
        <ele>341</ele>
        <time>2024-10-11T12:30:31Z</time>
      </trkpt>
      <trkpt lat="48.20576" lon="4.69961">
        <ele>338</ele>
        <time>2024-10-11T12:30:50Z</time>
      </trkpt>
      <trkpt lat="48.20454" lon="4.69953">
        <ele>341</ele>
        <time>2024-10-11T12:31:11Z</time>
      </trkpt>
      <trkpt lat="48.19967" lon="4.69869">
        <ele>350</ele>
        <time>2024-10-11T12:32:39Z</time>
      </trkpt>
      <trkpt lat="48.19629" lon="4.69951">
        <ele>343</ele>
        <time>2024-10-11T12:33:39Z</time>
      </trkpt>
      <trkpt lat="48.19371" lon="4.70078">
        <ele>338</ele>
        <time>2024-10-11T12:34:28Z</time>
      </trkpt>
      <trkpt lat="48.19293" lon="4.70096">
        <ele>337</ele>
        <time>2024-10-11T12:34:42Z</time>
      </trkpt>
      <trkpt lat="48.19201" lon="4.69815">
        <ele>328</ele>
        <time>2024-10-11T12:35:19Z</time>
      </trkpt>
      <trkpt lat="48.19152" lon="4.69688">
        <ele>313</ele>
        <time>2024-10-11T12:35:36Z</time>
      </trkpt>
      <trkpt lat="48.19074" lon="4.69537">
        <ele>293</ele>
        <time>2024-10-11T12:35:59Z</time>
      </trkpt>
      <trkpt lat="48.19087" lon="4.69365">
        <ele>285</ele>
        <time>2024-10-11T12:36:20Z</time>
      </trkpt>
      <trkpt lat="48.18905" lon="4.69207">
        <ele>304</ele>
        <time>2024-10-11T12:36:57Z</time>
      </trkpt>
      <trkpt lat="48.18816" lon="4.68619">
        <ele>343</ele>
        <time>2024-10-11T12:38:08Z</time>
      </trkpt>
      <trkpt lat="48.18798" lon="4.68526">
        <ele>347</ele>
        <time>2024-10-11T12:38:20Z</time>
      </trkpt>
      <trkpt lat="48.1883" lon="4.68448">
        <ele>346</ele>
        <time>2024-10-11T12:38:31Z</time>
      </trkpt>
      <trkpt lat="48.18802" lon="4.68313">
        <ele>344</ele>
        <time>2024-10-11T12:38:48Z</time>
      </trkpt>
      <trkpt lat="48.18908" lon="4.68192">
        <ele>341</ele>
        <time>2024-10-11T12:39:11Z</time>
      </trkpt>
      <trkpt lat="48.18924" lon="4.6817">
        <ele>341</ele>
        <time>2024-10-11T12:39:15Z</time>
      </trkpt>
      <trkpt lat="48.18853" lon="4.68012">
        <ele>331</ele>
        <time>2024-10-11T12:39:38Z</time>
      </trkpt>
      <trkpt lat="48.18775" lon="4.67923">
        <ele>328</ele>
        <time>2024-10-11T12:39:55Z</time>
      </trkpt>
      <trkpt lat="48.18683" lon="4.67676">
        <ele>325</ele>
        <time>2024-10-11T12:40:29Z</time>
      </trkpt>
      <trkpt lat="48.18766" lon="4.67456">
        <ele>302</ele>
        <time>2024-10-11T12:40:59Z</time>
      </trkpt>
      <trkpt lat="48.18766" lon="4.67329">
        <ele>287</ele>
        <time>2024-10-11T12:41:14Z</time>
      </trkpt>
      <trkpt lat="48.18719" lon="4.67165">
        <ele>269</ele>
        <time>2024-10-11T12:41:35Z</time>
      </trkpt>
      <trkpt lat="48.18709" lon="4.67051">
        <ele>258</ele>
        <time>2024-10-11T12:41:49Z</time>
      </trkpt>
      <trkpt lat="48.18597" lon="4.66757">
        <ele>244</ele>
        <time>2024-10-11T12:42:29Z</time>
      </trkpt>
      <trkpt lat="48.18417" lon="4.66765">
        <ele>243</ele>
        <time>2024-10-11T12:43:01Z</time>
      </trkpt>
      <trkpt lat="48.18287" lon="4.66774">
        <ele>242</ele>
        <time>2024-10-11T12:43:24Z</time>
      </trkpt>
      <trkpt lat="48.18107" lon="4.66879">
        <ele>245</ele>
        <time>2024-10-11T12:43:58Z</time>
      </trkpt>
      <trkpt lat="48.18266" lon="4.66509">
        <ele>248</ele>
        <time>2024-10-11T12:44:51Z</time>
      </trkpt>
      <trkpt lat="48.18189" lon="4.66441">
        <ele>253</ele>
        <time>2024-10-11T12:45:06Z</time>
      </trkpt>
      <trkpt lat="48.17904" lon="4.66241">
        <ele>302</ele>
        <time>2024-10-11T12:46:02Z</time>
      </trkpt>
      <trkpt lat="48.17845" lon="4.66191">
        <ele>311</ele>
        <time>2024-10-11T12:46:15Z</time>
      </trkpt>
      <trkpt lat="48.17631" lon="4.65955">
        <ele>324</ele>
        <time>2024-10-11T12:47:02Z</time>
      </trkpt>
      <trkpt lat="48.17536" lon="4.65823">
        <ele>319</ele>
        <time>2024-10-11T12:47:25Z</time>
      </trkpt>
      <trkpt lat="48.17391" lon="4.6555">
        <ele>299</ele>
        <time>2024-10-11T12:48:06Z</time>
      </trkpt>
      <trkpt lat="48.17384" lon="4.65541">
        <ele>297</ele>
        <time>2024-10-11T12:48:08Z</time>
      </trkpt>
      <trkpt lat="48.17486" lon="4.65319">
        <ele>302</ele>
        <time>2024-10-11T12:48:40Z</time>
      </trkpt>
      <trkpt lat="48.17467" lon="4.6508">
        <ele>297</ele>
        <time>2024-10-11T12:49:08Z</time>
      </trkpt>
      <trkpt lat="48.17685" lon="4.65161">
        <ele>312</ele>
        <time>2024-10-11T12:49:48Z</time>
      </trkpt>
      <trkpt lat="48.18089" lon="4.65302">
        <ele>302</ele>
        <time>2024-10-11T12:51:02Z</time>
      </trkpt>
      <trkpt lat="48.18295" lon="4.65322">
        <ele>286</ele>
        <time>2024-10-11T12:51:39Z</time>
      </trkpt>
      <trkpt lat="48.18372" lon="4.65261">
        <ele>271</ele>
        <time>2024-10-11T12:51:54Z</time>
      </trkpt>
      <trkpt lat="48.18574" lon="4.65136">
        <ele>237</ele>
        <time>2024-10-11T12:52:33Z</time>
      </trkpt>
      <trkpt lat="48.18447" lon="4.64888">
        <ele>235</ele>
        <time>2024-10-11T12:53:10Z</time>
      </trkpt>
      <trkpt lat="48.18405" lon="4.64744">
        <ele>237</ele>
        <time>2024-10-11T12:53:29Z</time>
      </trkpt>
      <trkpt lat="48.18614" lon="4.64673">
        <ele>219</ele>
        <time>2024-10-11T12:54:07Z</time>
      </trkpt>
      <trkpt lat="48.18854" lon="4.64692">
        <ele>217</ele>
        <time>2024-10-11T12:54:50Z</time>
      </trkpt>
      <trkpt lat="48.18862" lon="4.6462">
        <ele>218</ele>
        <time>2024-10-11T12:54:59Z</time>
      </trkpt>
      <trkpt lat="48.18855" lon="4.6454">
        <ele>218</ele>
        <time>2024-10-11T12:55:08Z</time>
      </trkpt>
      <trkpt lat="48.18859" lon="4.64356">
        <ele>220</ele>
        <time>2024-10-11T12:55:30Z</time>
      </trkpt>
      <trkpt lat="48.18906" lon="4.63951">
        <ele>217</ele>
        <time>2024-10-11T12:56:19Z</time>
      </trkpt>
      <trkpt lat="48.18921" lon="4.6385">
        <ele>215</ele>
        <time>2024-10-11T12:56:31Z</time>
      </trkpt>
      <trkpt lat="48.18952" lon="4.63741">
        <ele>215</ele>
        <time>2024-10-11T12:56:45Z</time>
      </trkpt>
      <trkpt lat="48.18995" lon="4.63628">
        <ele>216</ele>
        <time>2024-10-11T12:57:01Z</time>
      </trkpt>
      <trkpt lat="48.19027" lon="4.6357">
        <ele>215</ele>
        <time>2024-10-11T12:57:09Z</time>
      </trkpt>
      <trkpt lat="48.19047" lon="4.63545">
        <ele>215</ele>
        <time>2024-10-11T12:57:14Z</time>
      </trkpt>
      <trkpt lat="48.19064" lon="4.63558">
        <ele>217</ele>
        <time>2024-10-11T12:57:17Z</time>
      </trkpt>
      <trkpt lat="48.19089" lon="4.63601">
        <ele>222</ele>
        <time>2024-10-11T12:57:24Z</time>
      </trkpt>
      <trkpt lat="48.19095" lon="4.63637">
        <ele>225</ele>
        <time>2024-10-11T12:57:29Z</time>
      </trkpt>
      <trkpt lat="48.19121" lon="4.63641">
        <ele>226</ele>
        <time>2024-10-11T12:57:33Z</time>
      </trkpt>
      <trkpt lat="48.19133" lon="4.63647">
        <ele>227</ele>
        <time>2024-10-11T12:57:36Z</time>
      </trkpt>
      <trkpt lat="48.19209" lon="4.63731">
        <ele>238</ele>
        <time>2024-10-11T12:57:52Z</time>
      </trkpt>
      <trkpt lat="48.19238" lon="4.63715">
        <ele>237</ele>
        <time>2024-10-11T12:57:58Z</time>
      </trkpt>
      <trkpt lat="48.19277" lon="4.63706">
        <ele>236</ele>
        <time>2024-10-11T12:58:05Z</time>
      </trkpt>
      <trkpt lat="48.19437" lon="4.63688">
        <ele>233</ele>
        <time>2024-10-11T12:58:33Z</time>
      </trkpt>
      <trkpt lat="48.19446" lon="4.63682">
        <ele>232</ele>
        <time>2024-10-11T12:58:35Z</time>
      </trkpt>
      <trkpt lat="48.19445" lon="4.6365">
        <ele>229</ele>
        <time>2024-10-11T12:58:39Z</time>
      </trkpt>
      <trkpt lat="48.1945" lon="4.63638">
        <ele>228</ele>
        <time>2024-10-11T12:58:41Z</time>
      </trkpt>
      <trkpt lat="48.19513" lon="4.63605">
        <ele>225</ele>
        <time>2024-10-11T12:58:53Z</time>
      </trkpt>
      <trkpt lat="48.19605" lon="4.63591">
        <ele>224</ele>
        <time>2024-10-11T12:59:09Z</time>
      </trkpt>
      <trkpt lat="48.1973" lon="4.63554">
        <ele>225</ele>
        <time>2024-10-11T12:59:32Z</time>
      </trkpt>
      <trkpt lat="48.19806" lon="4.63538">
        <ele>222</ele>
        <time>2024-10-11T12:59:45Z</time>
      </trkpt>
      <trkpt lat="48.19892" lon="4.63535">
        <ele>220</ele>
        <time>2024-10-11T13:00:01Z</time>
      </trkpt>
      <trkpt lat="48.19917" lon="4.63467">
        <ele>215</ele>
        <time>2024-10-11T13:00:10Z</time>
      </trkpt>
      <trkpt lat="48.19925" lon="4.63456">
        <ele>215</ele>
        <time>2024-10-11T13:00:12Z</time>
      </trkpt>
      <trkpt lat="48.19941" lon="4.63449">
        <ele>213</ele>
        <time>2024-10-11T13:00:15Z</time>
      </trkpt>
      <trkpt lat="48.20035" lon="4.63434">
        <ele>212</ele>
        <time>2024-10-11T13:00:32Z</time>
      </trkpt>
      <trkpt lat="48.20047" lon="4.63421">
        <ele>211</ele>
        <time>2024-10-11T13:00:34Z</time>
      </trkpt>
      <trkpt lat="48.20044" lon="4.63329">
        <ele>208</ele>
        <time>2024-10-11T13:00:45Z</time>
      </trkpt>
      <trkpt lat="48.20015" lon="4.63106">
        <ele>197</ele>
        <time>2024-10-11T13:01:12Z</time>
      </trkpt>
      <trkpt lat="48.20018" lon="4.6309">
        <ele>196</ele>
        <time>2024-10-11T13:01:14Z</time>
      </trkpt>
      <trkpt lat="48.20118" lon="4.6305">
        <ele>197</ele>
        <time>2024-10-11T13:01:32Z</time>
      </trkpt>
      <trkpt lat="48.20196" lon="4.63029">
        <ele>198</ele>
        <time>2024-10-11T13:01:47Z</time>
      </trkpt>
      <trkpt lat="48.2025" lon="4.63027">
        <ele>199</ele>
        <time>2024-10-11T13:01:56Z</time>
      </trkpt>
      <trkpt lat="48.20282" lon="4.63032">
        <ele>200</ele>
        <time>2024-10-11T13:02:02Z</time>
      </trkpt>
      <trkpt lat="48.20293" lon="4.63026">
        <ele>199</ele>
        <time>2024-10-11T13:02:04Z</time>
      </trkpt>
      <trkpt lat="48.20325" lon="4.63019">
        <ele>199</ele>
        <time>2024-10-11T13:02:10Z</time>
      </trkpt>
      <trkpt lat="48.20489" lon="4.63007">
        <ele>194</ele>
        <time>2024-10-11T13:02:39Z</time>
      </trkpt>
      <trkpt lat="48.20589" lon="4.62986">
        <ele>191</ele>
        <time>2024-10-11T13:02:57Z</time>
      </trkpt>
      <trkpt lat="48.20657" lon="4.62962">
        <ele>191</ele>
        <time>2024-10-11T13:03:09Z</time>
      </trkpt>
      <trkpt lat="48.20732" lon="4.62917">
        <ele>189</ele>
        <time>2024-10-11T13:03:24Z</time>
      </trkpt>
      <trkpt lat="48.20781" lon="4.63042">
        <ele>191</ele>
        <time>2024-10-11T13:03:41Z</time>
      </trkpt>
      <trkpt lat="48.20837" lon="4.63165">
        <ele>192</ele>
        <time>2024-10-11T13:03:59Z</time>
      </trkpt>
      <trkpt lat="48.2092" lon="4.6337">
        <ele>196</ele>
        <time>2024-10-11T13:04:27Z</time>
      </trkpt>
      <trkpt lat="48.2091" lon="4.63456">
        <ele>197</ele>
        <time>2024-10-11T13:04:37Z</time>
      </trkpt>
      <trkpt lat="48.2092" lon="4.63469">
        <ele>198</ele>
        <time>2024-10-11T13:04:40Z</time>
      </trkpt>
      <trkpt lat="48.20927" lon="4.63493">
        <ele>200</ele>
        <time>2024-10-11T13:04:43Z</time>
      </trkpt>
      <trkpt lat="48.20938" lon="4.63558">
        <ele>203</ele>
        <time>2024-10-11T13:04:51Z</time>
      </trkpt>
      <trkpt lat="48.20959" lon="4.63644">
        <ele>208</ele>
        <time>2024-10-11T13:05:02Z</time>
      </trkpt>
      <trkpt lat="48.20982" lon="4.63716">
        <ele>212</ele>
        <time>2024-10-11T13:05:11Z</time>
      </trkpt>
      <trkpt lat="48.2101" lon="4.63858">
        <ele>215</ele>
        <time>2024-10-11T13:05:29Z</time>
      </trkpt>
      <trkpt lat="48.20992" lon="4.63919">
        <ele>211</ele>
        <time>2024-10-11T13:05:37Z</time>
      </trkpt>
      <trkpt lat="48.20981" lon="4.64008">
        <ele>213</ele>
        <time>2024-10-11T13:05:47Z</time>
      </trkpt>
      <trkpt lat="48.20985" lon="4.64011">
        <ele>213</ele>
        <time>2024-10-11T13:05:48Z</time>
      </trkpt>
      <trkpt lat="48.20996" lon="4.64003">
        <ele>214</ele>
        <time>2024-10-11T13:05:50Z</time>
      </trkpt>
      <trkpt lat="48.21046" lon="4.63983">
        <ele>217</ele>
        <time>2024-10-11T13:05:59Z</time>
      </trkpt>
      <trkpt lat="48.21064" lon="4.63986">
        <ele>219</ele>
        <time>2024-10-11T13:06:03Z</time>
      </trkpt>
      <trkpt lat="48.21121" lon="4.63989">
        <ele>224</ele>
        <time>2024-10-11T13:06:13Z</time>
      </trkpt>
      <trkpt lat="48.21164" lon="4.63999">
        <ele>227</ele>
        <time>2024-10-11T13:06:21Z</time>
      </trkpt>
      <trkpt lat="48.21353" lon="4.64092">
        <ele>248</ele>
        <time>2024-10-11T13:06:56Z</time>
      </trkpt>
      <trkpt lat="48.21449" lon="4.64143">
        <ele>262</ele>
        <time>2024-10-11T13:07:14Z</time>
      </trkpt>
      <trkpt lat="48.21484" lon="4.64165">
        <ele>265</ele>
        <time>2024-10-11T13:07:21Z</time>
      </trkpt>
      <trkpt lat="48.21506" lon="4.64181">
        <ele>269</ele>
        <time>2024-10-11T13:07:25Z</time>
      </trkpt>
      <trkpt lat="48.21538" lon="4.64217">
        <ele>275</ele>
        <time>2024-10-11T13:07:32Z</time>
      </trkpt>
      <trkpt lat="48.21585" lon="4.64298">
        <ele>279</ele>
        <time>2024-10-11T13:07:45Z</time>
      </trkpt>
      <trkpt lat="48.21603" lon="4.64315">
        <ele>282</ele>
        <time>2024-10-11T13:07:49Z</time>
      </trkpt>
      <trkpt lat="48.21622" lon="4.64346">
        <ele>284</ele>
        <time>2024-10-11T13:07:54Z</time>
      </trkpt>
      <trkpt lat="48.21669" lon="4.64377">
        <ele>288</ele>
        <time>2024-10-11T13:08:03Z</time>
      </trkpt>
      <trkpt lat="48.21718" lon="4.64432">
        <ele>291</ele>
        <time>2024-10-11T13:08:14Z</time>
      </trkpt>
      <trkpt lat="48.21761" lon="4.64507">
        <ele>294</ele>
        <time>2024-10-11T13:08:26Z</time>
      </trkpt>
      <trkpt lat="48.21909" lon="4.64571">
        <ele>302</ele>
        <time>2024-10-11T13:08:53Z</time>
      </trkpt>
      <trkpt lat="48.22053" lon="4.64518">
        <ele>298</ele>
        <time>2024-10-11T13:09:19Z</time>
      </trkpt>
      <trkpt lat="48.22155" lon="4.64534">
        <ele>297</ele>
        <time>2024-10-11T13:09:38Z</time>
      </trkpt>
      <trkpt lat="48.22371" lon="4.64649">
        <ele>294</ele>
        <time>2024-10-11T13:10:18Z</time>
      </trkpt>
      <trkpt lat="48.22192" lon="4.65754">
        <ele>306</ele>
        <time>2024-10-11T13:12:33Z</time>
      </trkpt>
      <trkpt lat="48.22132" lon="4.66088">
        <ele>293</ele>
        <time>2024-10-11T13:13:14Z</time>
      </trkpt>
      <trkpt lat="48.22214" lon="4.6653">
        <ele>309</ele>
        <time>2024-10-11T13:14:09Z</time>
      </trkpt>
      <trkpt lat="48.22406" lon="4.66952">
        <ele>302</ele>
        <time>2024-10-11T13:15:09Z</time>
      </trkpt>
      <trkpt lat="48.22731" lon="4.67686">
        <ele>303</ele>
        <time>2024-10-11T13:16:54Z</time>
      </trkpt>
      <trkpt lat="48.22823" lon="4.68214">
        <ele>267</ele>
        <time>2024-10-11T13:17:58Z</time>
      </trkpt>
      <trkpt lat="48.22927" lon="4.68178">
        <ele>275</ele>
        <time>2024-10-11T13:18:17Z</time>
      </trkpt>
      <trkpt lat="48.22988" lon="4.68358">
        <ele>258</ele>
        <time>2024-10-11T13:18:41Z</time>
      </trkpt>
      <trkpt lat="48.23041" lon="4.68814">
        <ele>205</ele>
        <time>2024-10-11T13:19:36Z</time>
      </trkpt>
      <trkpt lat="48.23163" lon="4.69158">
        <ele>172</ele>
        <time>2024-10-11T13:20:22Z</time>
      </trkpt>
      <trkpt lat="48.23139" lon="4.69265">
        <ele>171</ele>
        <time>2024-10-11T13:20:36Z</time>
      </trkpt>
      <trkpt lat="48.23151" lon="4.69542">
        <ele>169</ele>
        <time>2024-10-11T13:21:09Z</time>
      </trkpt>
      <trkpt lat="48.23154" lon="4.69577">
        <ele>168</ele>
        <time>2024-10-11T13:21:13Z</time>
      </trkpt>
      <trkpt lat="48.23132" lon="4.69729">
        <ele>167</ele>
        <time>2024-10-11T13:21:31Z</time>
      </trkpt>
      <trkpt lat="48.23071" lon="4.69923">
        <ele>165</ele>
        <time>2024-10-11T13:21:57Z</time>
      </trkpt>
      <trkpt lat="48.22973" lon="4.70317">
        <ele>171</ele>
        <time>2024-10-11T13:22:46Z</time>
      </trkpt>
      <trkpt lat="48.22442" lon="4.69909">
        <ele>253</ele>
        <time>2024-10-11T13:24:33Z</time>
      </trkpt>
      <trkpt lat="48.21967" lon="4.69879">
        <ele>312</ele>
        <time>2024-10-11T13:25:57Z</time>
      </trkpt>
    </trkseg>
  </trk>
</gpx>